Time;durP1;ratioP1;P1;durP2;ratioP2;P2;SDS_P1;SDS_P2;PMS_P1;PMS_P2;Temp;Humidity;BMP_temperature;BMP_pressure;BME280_temperature;BME280_humidity;BME280_pressure;Samples;Min_cycle;Max_cycle;Signal;HPM_P1;HPM_P2
2022/09/30 00:01:28;;;;;;;7.72;7.05;;;8.90;99.90;;;;;;5074151;28;20424;-27
2022/09/30 00:03:56;;;;;;;9.27;8.48;;;8.90;99.90;;;;;;5068335;28;20120;-27
2022/09/30 00:06:23;;;;;;;9.57;8.77;;;8.90;99.90;;;;;;5057710;28;20041;-27
2022/09/30 00:08:48;;;;;;;9.02;8.20;;;8.90;99.90;;;;;;5064657;28;20040;-27
2022/09/30 00:11:20;;;;;;;10.23;9.25;;;8.80;99.90;;;;;;5072633;28;20090;-27
2022/09/30 00:13:49;;;;;;;12.10;11.05;;;8.80;99.90;;;;;;5061943;28;20074;-27
2022/09/30 00:16:17;;;;;;;12.02;11.02;;;8.80;99.90;;;;;;5085827;28;20036;-27
2022/09/30 00:18:43;;;;;;;12.38;11.27;;;8.80;99.90;;;;;;5076891;28;20036;-27
2022/09/30 00:21:10;;;;;;;13.88;12.50;;;8.80;99.90;;;;;;5071518;28;20131;-27
2022/09/30 00:23:37;;;;;;;13.38;12.07;;;8.80;99.90;;;;;;5068094;28;20093;-27
2022/09/30 00:26:10;;;;;;;13.85;12.55;;;8.80;99.90;;;;;;5075956;28;20218;-27
2022/09/30 00:28:37;;;;;;;14.05;12.65;;;8.80;99.90;;;;;;5064597;28;20039;-27
2022/09/30 00:31:06;;;;;;;15.85;14.30;;;8.80;99.90;;;;;;5074452;28;20040;-27
2022/09/30 00:33:33;;;;;;;12.23;11.00;;;8.80;99.90;;;;;;5067288;28;20165;-27
2022/09/30 00:36:00;;;;;;;11.50;10.45;;;8.70;99.90;;;;;;5070579;28;20044;-27
2022/09/30 00:38:26;;;;;;;11.10;10.20;;;8.70;99.90;;;;;;5067327;28;20059;-27
2022/09/30 00:40:52;;;;;;;10.35;9.45;;;8.70;99.90;;;;;;5064344;28;20578;-27
2022/09/30 00:43:40;;;;;;;11.73;10.75;;;8.60;99.90;;;;;;5067419;28;20039;-27
2022/09/30 00:46:20;;;;;;;12.30;11.30;;;8.60;99.90;;;;;;5074631;28;20200;-27
2022/09/30 00:48:52;;;;;;;11.55;10.55;;;8.60;99.90;;;;;;5082221;28;20099;-27
2022/09/30 00:51:27;;;;;;;11.60;10.60;;;8.60;99.90;;;;;;5073351;28;20040;-27
2022/09/30 00:54:02;;;;;;;13.15;11.98;;;8.50;99.90;;;;;;5074277;28;20066;-27
2022/09/30 00:56:33;;;;;;;10.55;9.70;;;8.50;99.90;;;;;;5073312;28;20418;-27
2022/09/30 00:59:11;;;;;;;10.38;9.48;;;8.50;99.90;;;;;;5061749;28;20040;-27
2022/09/30 01:01:40;;;;;;;11.77;10.60;;;8.40;99.90;;;;;;5063949;28;20044;-27
2022/09/30 01:04:19;;;;;;;11.70;10.63;;;8.40;99.90;;;;;;5073974;28;20036;-26
2022/09/30 01:06:46;;;;;;;11.93;10.93;;;8.40;99.90;;;;;;5071841;28;20042;-26
2022/09/30 01:09:12;;;;;;;10.88;10.02;;;8.40;99.90;;;;;;5071289;28;20058;-26
2022/09/30 01:11:38;;;;;;;9.63;8.82;;;8.30;99.90;;;;;;5068949;28;20110;-26
2022/09/30 01:14:12;;;;;;;10.38;9.55;;;8.30;99.90;;;;;;5072602;28;20505;-27
2022/09/30 01:16:53;;;;;;;12.15;10.88;;;8.20;99.90;;;;;;5069627;28;20075;-27
2022/09/30 01:19:46;;;;;;;11.45;10.55;;;8.20;99.90;;;;;;5075041;28;20040;-27
2022/09/30 01:22:34;;;;;;;11.65;10.73;;;8.20;99.90;;;;;;5067018;28;20036;-27
2022/09/30 01:25:25;;;;;;;12.77;11.77;;;8.20;99.90;;;;;;5071735;28;20062;-27
2022/09/30 01:28:24;;;;;;;10.57;9.77;;;8.20;99.90;;;;;;5066248;28;20033;-27
2022/09/30 01:31:21;;;;;;;10.68;9.65;;;8.10;99.90;;;;;;5065705;28;20045;-27
2022/09/30 01:34:00;;;;;;;10.45;9.55;;;8.00;99.90;;;;;;5057905;28;20035;-27
2022/09/30 01:37:04;;;;;;;10.90;9.90;;;8.00;99.90;;;;;;5061473;28;20032;-27
2022/09/30 01:39:48;;;;;;;11.20;10.38;;;7.80;99.90;;;;;;4973737;28;20112;-27
2022/09/30 01:42:33;;;;;;;11.50;10.40;;;7.80;99.90;;;;;;5064373;28;20044;-27
2022/09/30 01:45:16;;;;;;;10.95;10.15;;;7.70;99.90;;;;;;5069250;28;20044;-26
2022/09/30 01:48:00;;;;;;;11.40;10.33;;;7.70;99.90;;;;;;5085702;28;20036;-26
2022/09/30 01:50:57;;;;;;;13.23;12.10;;;7.70;99.90;;;;;;5072592;28;20787;-26
2022/09/30 01:53:55;;;;;;;12.18;11.07;;;7.70;99.90;;;;;;5055870;28;20440;-26
2022/09/30 01:56:39;;;;;;;13.10;12.00;;;7.70;99.90;;;;;;5051928;28;20044;-26
2022/09/30 01:59:08;;;;;;;11.98;11.00;;;7.60;99.90;;;;;;5068718;28;20041;-26
2022/09/30 02:01:41;;;;;;;10.52;9.63;;;7.60;99.90;;;;;;5070753;28;20519;-27
2022/09/30 02:04:12;;;;;;;10.40;9.60;;;7.50;99.90;;;;;;5066265;28;20513;-27
2022/09/30 02:06:43;;;;;;;12.30;11.30;;;7.50;99.90;;;;;;5067114;28;20500;-25
2022/09/30 02:09:37;;;;;;;11.57;10.57;;;7.50;99.90;;;;;;5069268;28;20515;-27
2022/09/30 02:12:07;;;;;;;12.27;11.27;;;7.50;99.90;;;;;;5062733;28;20045;-25
2022/09/30 02:14:57;;;;;;;11.75;10.65;;;7.40;99.90;;;;;;5065594;28;20054;-27
2022/09/30 02:17:41;;;;;;;11.60;10.63;;;7.40;99.90;;;;;;5069574;28;20117;-27
2022/09/30 02:20:21;;;;;;;;;;;7.40;99.90;;;;;;5070822;28;20036;-25
2022/09/30 02:23:11;;;;;;;11.57;10.68;;;7.30;99.90;;;;;;5055855;28;19916;-25
2022/09/30 02:25:41;;;;;;;11.90;10.90;;;7.30;99.90;;;;;;5090927;28;20115;-25
2022/09/30 02:28:16;;;;;;;11.52;10.57;;;7.20;99.90;;;;;;5068122;28;20036;-27
2022/09/30 02:30:46;;;;;;;12.98;11.88;;;7.20;99.90;;;;;;5066973;28;20028;-27
2022/09/30 02:33:35;;;;;;;11.13;10.18;;;7.20;99.90;;;;;;5062248;28;20036;-25
2022/09/30 02:36:07;;;;;;;11.35;10.35;;;7.10;99.90;;;;;;5071009;28;20040;-28
2022/09/30 02:38:40;;;;;;;10.60;9.80;;;7.10;99.90;;;;;;5066368;28;20078;-27
2022/09/30 02:41:13;;;;;;;11.48;10.48;;;7.00;99.90;;;;;;5070263;28;20040;-27
2022/09/30 02:43:40;;;;;;;;;;;7.00;99.90;;;;;;5066206;28;20036;-27
2022/09/30 02:46:12;;;;;;;14.45;12.98;;;6.90;99.90;;;;;;5073876;28;19941;-27
2022/09/30 02:48:53;;;;;;;11.38;10.45;;;6.90;99.90;;;;;;5067108;28;20068;-27
2022/09/30 02:51:26;;;;;;;12.13;11.13;;;6.90;99.90;;;;;;5074061;28;20095;-26
2022/09/30 02:54:04;;;;;;;10.35;9.40;;;6.90;99.90;;;;;;5064180;28;20036;-27
2022/09/30 02:56:48;;;;;;;11.27;10.27;;;6.90;99.90;;;;;;5046955;28;20230;-26
2022/09/30 02:59:13;;;;;;;11.38;10.45;;;6.80;99.90;;;;;;5064637;28;20044;-26
2022/09/30 03:01:40;;;;;;;10.90;10.00;;;6.80;99.90;;;;;;5073247;28;20028;-26
2022/09/30 03:04:10;;;;;;;11.00;10.07;;;6.80;99.90;;;;;;5073212;28;20036;-26
2022/09/30 03:06:37;;;;;;;11.18;10.18;;;6.70;99.90;;;;;;5064650;28;20043;-26
2022/09/30 03:09:04;;;;;;;10.52;9.73;;;6.70;99.90;;;;;;5068839;28;20451;-26
2022/09/30 03:11:30;;;;;;;11.13;10.23;;;6.70;99.90;;;;;;5070437;28;21219;-26
2022/09/30 03:14:15;;;;;;;12.38;11.30;;;6.70;99.90;;;;;;5065951;28;20037;-26
2022/09/30 03:17:02;;;;;;;12.50;11.40;;;6.70;99.90;;;;;;5062943;28;20032;-26
2022/09/30 03:19:50;;;;;;;13.18;11.88;;;6.60;99.90;;;;;;5068934;28;20051;-26
2022/09/30 03:22:26;;;;;;;11.80;10.57;;;6.60;99.90;;;;;;5082868;28;20501;-26
2022/09/30 03:24:54;;;;;;;11.77;10.68;;;6.60;99.90;;;;;;5068483;28;20032;-26
2022/09/30 03:27:34;;;;;;;12.02;10.93;;;6.50;99.90;;;;;;5070361;28;20047;-26
2022/09/30 03:30:04;;;;;;;13.25;12.05;;;6.50;99.90;;;;;;5068721;28;20043;-26
2022/09/30 03:33:05;;;;;;;11.40;10.43;;;6.50;99.90;;;;;;5072894;28;20043;-26
2022/09/30 03:36:01;;;;;;;11.98;10.98;;;6.50;99.90;;;;;;5068567;28;20032;-26
2022/09/30 03:38:51;;;;;;;11.65;10.25;;;6.50;99.90;;;;;;5071628;28;20074;-26
2022/09/30 03:41:35;;;;;;;12.25;11.15;;;6.50;99.90;;;;;;5072983;28;20032;-26
2022/09/30 03:44:01;;;;;;;12.32;11.32;;;6.40;99.90;;;;;;5064410;28;20046;-26
2022/09/30 03:46:45;;;;;;;10.18;9.38;;;6.40;99.90;;;;;;5063764;28;20445;-26
2022/09/30 03:49:38;;;;;;;11.85;10.73;;;6.40;99.90;;;;;;5060245;28;20438;-26
2022/09/30 03:52:09;;;;;;;12.13;11.13;;;6.40;99.90;;;;;;5067388;28;20505;-26
2022/09/30 03:54:48;;;;;;;11.02;10.02;;;6.40;99.90;;;;;;5066446;28;20075;-26
2022/09/30 03:57:13;;;;;;;11.98;10.88;;;6.30;99.90;;;;;;5067757;28;20040;-26
2022/09/30 03:59:39;;;;;;;11.48;10.52;;;6.30;99.90;;;;;;5064577;28;20127;-26
2022/09/30 04:02:09;;;;;;;11.32;10.43;;;6.30;99.90;;;;;;5064191;28;20036;-26
2022/09/30 04:04:35;;;;;;;10.98;9.98;;;6.30;99.90;;;;;;5063672;28;20033;-26
2022/09/30 04:07:01;;;;;;;12.73;11.63;;;6.20;99.90;;;;;;5065774;28;20498;-26
2022/09/30 04:09:27;;;;;;;11.52;10.52;;;6.20;99.90;;;;;;5071327;28;20792;-26
2022/09/30 04:11:53;;;;;;;11.25;10.15;;;6.20;99.90;;;;;;5066552;28;20036;-26
2022/09/30 04:14:18;;;;;;;12.40;11.30;;;6.10;99.90;;;;;;5071765;28;20047;-26
2022/09/30 04:16:44;;;;;;;12.07;10.95;;;6.10;99.90;;;;;;5064425;28;20040;-26
2022/09/30 04:19:10;;;;;;;12.60;11.48;;;6.10;99.90;;;;;;5061017;28;20032;-26
2022/09/30 04:21:35;;;;;;;14.70;13.40;;;6.10;99.90;;;;;;5065970;28;20037;-26
2022/09/30 04:24:04;;;;;;;12.30;11.30;;;6.10;99.90;;;;;;5072806;28;20053;-26
2022/09/30 04:26:30;;;;;;;13.75;12.45;;;6.20;99.90;;;;;;5064504;28;20048;-26
2022/09/30 04:28:57;;;;;;;12.98;11.65;;;6.20;99.90;;;;;;5051697;28;20121;-26
2022/09/30 04:31:23;;;;;;;12.60;11.27;;;6.20;99.90;;;;;;5063035;28;20044;-26
2022/09/30 04:33:49;;;;;;;12.43;11.27;;;6.20;99.90;;;;;;5072416;28;20515;-26
2022/09/30 04:36:15;;;;;;;12.63;11.43;;;6.10;99.90;;;;;;5074913;28;20078;-26
2022/09/30 04:38:41;;;;;;;11.40;10.30;;;6.10;99.90;;;;;;5068842;28;20461;-26
2022/09/30 04:41:10;;;;;;;11.18;10.18;;;6.10;99.90;;;;;;5068975;28;20032;-26
2022/09/30 04:43:35;;;;;;;12.00;10.90;;;6.00;99.90;;;;;;5065877;28;20036;-26
2022/09/30 04:46:01;;;;;;;11.10;10.20;;;6.00;99.90;;;;;;5075631;28;20089;-26
2022/09/30 04:48:29;;;;;;;10.30;9.50;;;5.90;99.90;;;;;;5075207;28;20035;-26
2022/09/30 04:50:54;;;;;;;11.50;10.48;;;5.90;99.90;;;;;;5068562;28;20045;-26
2022/09/30 04:53:20;;;;;;;9.65;8.95;;;5.80;99.90;;;;;;5072644;28;20073;-26
2022/09/30 04:55:46;;;;;;;11.05;10.15;;;5.80;99.90;;;;;;5070586;28;20037;-26
2022/09/30 04:58:12;;;;;;;13.13;11.20;;;5.80;99.90;;;;;;5066477;28;20569;-26
2022/09/30 05:00:38;;;;;;;14.80;13.40;;;5.80;99.90;;;;;;5070397;28;20043;-26
2022/09/30 05:03:04;;;;;;;12.60;11.40;;;5.80;99.90;;;;;;5070118;28;20354;-27
2022/09/30 05:05:31;;;;;;;11.88;10.68;;;5.80;99.90;;;;;;5065304;28;20035;-27
2022/09/30 05:08:02;;;;;;;11.02;9.93;;;5.80;99.90;;;;;;5061799;28;20086;-27
2022/09/30 05:10:28;;;;;;;12.20;11.00;;;5.80;99.90;;;;;;5087069;28;20032;-26
2022/09/30 05:12:56;;;;;;;9.65;8.82;;;5.80;99.90;;;;;;5064174;28;20040;-26
2022/09/30 05:15:22;;;;;;;9.82;9.02;;;5.80;99.90;;;;;;5055204;28;20048;-26
2022/09/30 05:17:48;;;;;;;10.00;9.00;;;5.80;99.90;;;;;;5069263;28;20144;-27
2022/09/30 05:20:14;;;;;;;30.40;10.73;;;5.80;99.90;;;;;;5072140;28;20094;-27
2022/09/30 05:22:39;;;;;;;12.13;9.63;;;5.80;99.90;;;;;;5066188;28;20087;-26
2022/09/30 05:25:06;;;;;;;8.85;8.00;;;5.80;99.90;;;;;;5071045;28;20141;-26
2022/09/30 05:27:31;;;;;;;9.45;8.70;;;5.80;99.90;;;;;;5067003;28;20032;-27
2022/09/30 05:29:57;;;;;;;9.60;8.90;;;5.80;99.90;;;;;;5074534;28;20509;-27
2022/09/30 05:32:24;;;;;;;24.02;11.25;;;5.70;99.90;;;;;;5075054;28;20573;-26
2022/09/30 05:34:50;;;;;;;26.48;11.02;;;5.80;99.90;;;;;;5046152;28;20052;-27
2022/09/30 05:37:16;;;;;;;14.88;9.93;;;5.80;99.90;;;;;;5065764;28;20415;-26
2022/09/30 05:39:42;;;;;;;9.23;8.45;;;5.80;99.90;;;;;;5069896;28;20028;-26
2022/09/30 05:42:08;;;;;;;10.98;10.07;;;5.80;99.90;;;;;;5068911;28;20074;-27
2022/09/30 05:44:33;;;;;;;10.10;9.30;;;5.80;99.90;;;;;;5058866;28;20040;-26
2022/09/30 05:46:59;;;;;;;9.70;8.80;;;5.80;99.90;;;;;;5069089;28;20160;-26
2022/09/30 05:49:25;;;;;;;9.93;9.05;;;5.80;99.90;;;;;;5069931;28;20031;-26
2022/09/30 05:51:51;;;;;;;13.48;10.07;;;5.80;99.90;;;;;;5075072;28;20074;-27
2022/09/30 05:54:17;;;;;;;10.75;9.75;;;5.80;99.90;;;;;;5069690;28;20047;-27
2022/09/30 05:56:43;;;;;;;11.52;10.50;;;5.80;99.90;;;;;;5063814;28;20394;-26
2022/09/30 05:59:09;;;;;;;12.18;10.98;;;5.80;99.90;;;;;;5071052;28;20047;-26
2022/09/30 06:01:35;;;;;;;11.65;10.52;;;5.80;99.90;;;;;;5062713;28;20037;-27
2022/09/30 06:04:01;;;;;;;11.18;10.18;;;5.80;99.90;;;;;;5064419;28;20036;-27
2022/09/30 06:06:29;;;;;;;11.48;10.40;;;5.80;99.90;;;;;;5064850;28;20071;-27
2022/09/30 06:08:55;;;;;;;13.88;12.52;;;5.80;99.90;;;;;;5074604;28;20123;-27
2022/09/30 06:11:23;;;;;;;12.20;11.10;;;5.90;99.90;;;;;;5056469;28;20045;-27
2022/09/30 06:13:49;;;;;;;15.10;11.60;;;5.90;99.90;;;;;;5068422;28;20055;-26
2022/09/30 06:16:17;;;;;;;13.13;11.73;;;5.90;99.90;;;;;;5053600;28;20036;-26
2022/09/30 06:18:42;;;;;;;12.18;11.00;;;6.00;99.90;;;;;;5072800;28;20028;-26
2022/09/30 06:21:11;;;;;;;13.00;11.13;;;6.00;99.90;;;;;;5068624;28;20047;-27
2022/09/30 06:23:37;;;;;;;14.10;12.40;;;6.00;99.90;;;;;;5065434;28;20039;-27
2022/09/30 06:26:05;;;;;;;14.32;11.60;;;6.00;99.90;;;;;;5065759;28;20032;-27
2022/09/30 06:28:34;;;;;;;12.52;11.35;;;6.10;99.90;;;;;;5061284;28;20097;-27
2022/09/30 06:31:01;;;;;;;12.73;11.25;;;6.10;99.90;;;;;;5058586;28;20084;-27
2022/09/30 06:33:27;;;;;;;15.25;13.50;;;6.10;99.90;;;;;;5072846;28;20141;-27
2022/09/30 06:35:53;;;;;;;14.55;13.18;;;6.20;99.90;;;;;;5066009;28;20036;-28
2022/09/30 06:38:21;;;;;;;13.75;12.45;;;6.20;99.90;;;;;;5071490;28;20105;-26
2022/09/30 06:40:49;;;;;;;11.77;10.63;;;6.30;99.90;;;;;;5059810;28;20039;-26
2022/09/30 06:43:17;;;;;;;14.27;12.88;;;6.30;99.90;;;;;;5062307;28;20065;-26
2022/09/30 06:45:45;;;;;;;13.95;12.48;;;6.40;99.90;;;;;;5069114;28;20146;-28
2022/09/30 06:48:11;;;;;;;13.82;12.40;;;6.40;99.90;;;;;;5055979;28;20029;-27
2022/09/30 06:50:38;;;;;;;24.35;16.08;;;6.50;99.90;;;;;;5071508;28;20032;-27
2022/09/30 06:53:06;;;;;;;15.13;13.73;;;6.50;99.90;;;;;;5071775;28;20117;-27
2022/09/30 06:55:37;;;;;;;13.85;12.45;;;6.60;99.90;;;;;;5065982;28;20040;-27
2022/09/30 06:58:06;;;;;;;16.20;14.10;;;6.60;99.90;;;;;;5064035;28;20032;-27
2022/09/30 07:00:32;;;;;;;15.32;13.70;;;6.70;99.90;;;;;;5056278;28;20028;-27
2022/09/30 07:02:58;;;;;;;14.18;12.82;;;6.80;99.90;;;;;;5071361;28;20036;-27
2022/09/30 07:05:25;;;;;;;18.52;15.88;;;6.80;99.90;;;;;;5065133;28;20405;-27
2022/09/30 07:07:52;;;;;;;17.63;14.27;;;6.90;99.90;;;;;;5067994;28;20032;-27
2022/09/30 07:10:19;;;;;;;17.38;15.55;;;6.90;99.90;;;;;;5066269;28;20517;-27
2022/09/30 07:12:51;;;;;;;17.02;14.93;;;6.90;99.90;;;;;;5071786;28;20051;-27
2022/09/30 07:15:20;;;;;;;17.45;15.70;;;7.00;99.90;;;;;;5071843;28;20030;-28
2022/09/30 07:17:55;;;;;;;19.00;16.48;;;7.20;99.90;;;;;;5055791;28;20037;-27
2022/09/30 07:20:21;;;;;;;15.90;14.25;;;7.20;99.90;;;;;;5069546;28;20046;-27
2022/09/30 07:22:47;;;;;;;19.17;16.17;;;7.30;99.90;;;;;;5066531;28;20036;-27
2022/09/30 07:25:13;;;;;;;19.33;15.65;;;7.40;99.90;;;;;;5072059;28;20166;-27
2022/09/30 07:27:40;;;;;;;17.08;15.35;;;7.50;99.90;;;;;;5061701;28;20504;-27
2022/09/30 07:30:06;;;;;;;17.88;15.95;;;7.60;99.90;;;;;;5072880;28;20405;-27
2022/09/30 07:32:32;;;;;;;17.08;14.18;;;7.80;99.90;;;;;;5063954;28;20152;-28
2022/09/30 07:34:57;;;;;;;16.98;15.20;;;7.90;99.90;;;;;;5065134;28;20079;-27
2022/09/30 07:37:25;;;;;;;16.60;14.88;;;8.00;99.90;;;;;;5063149;28;20115;-27
2022/09/30 07:39:50;;;;;;;15.82;14.18;;;8.20;99.90;;;;;;5073209;28;20105;-27
2022/09/30 07:42:20;;;;;;;28.13;15.55;;;8.50;99.90;;;;;;5048504;28;20051;-27
2022/09/30 07:44:49;;;;;;;16.98;14.25;;;8.70;99.90;;;;;;5068700;28;20032;-27
2022/09/30 07:47:15;;;;;;;15.15;12.75;;;9.00;99.90;;;;;;5070108;28;20036;-27
2022/09/30 07:49:42;;;;;;;15.70;14.10;;;9.40;99.90;;;;;;5065239;28;20401;-27
2022/09/30 07:52:10;;;;;;;14.18;12.77;;;9.70;99.90;;;;;;5072890;28;20418;-27
2022/09/30 07:54:36;;;;;;;14.80;13.30;;;10.00;99.90;;;;;;5072808;28;20063;-27
2022/09/30 07:57:03;;;;;;;15.48;12.75;;;10.30;99.90;;;;;;5070387;28;20037;-28
2022/09/30 07:59:31;;;;;;;13.70;12.40;;;10.50;99.90;;;;;;5071376;28;20036;-28
2022/09/30 08:01:57;;;;;;;12.02;10.80;;;10.80;99.90;;;;;;5065097;28;20032;-27
2022/09/30 08:04:25;;;;;;;12.00;10.77;;;11.20;99.90;;;;;;5067303;28;20063;-28
2022/09/30 08:06:54;;;;;;;12.13;10.93;;;11.70;99.90;;;;;;5066973;28;20550;-28
2022/09/30 08:09:22;;;;;;;10.65;9.65;;;12.30;99.90;;;;;;5063288;28;20036;-28
2022/09/30 08:11:48;;;;;;;11.18;10.15;;;12.90;99.90;;;;;;5050236;28;21607;-28
2022/09/30 08:14:20;;;;;;;9.02;8.23;;;13.50;99.90;;;;;;5073886;28;20036;-28
2022/09/30 08:16:46;;;;;;;9.73;8.82;;;14.00;99.90;;;;;;5070691;28;20040;-28
2022/09/30 08:19:23;;;;;;;9.90;9.10;;;14.40;99.90;;;;;;5074145;28;20051;-28
2022/09/30 08:21:49;;;;;;;9.13;8.30;;;14.80;99.90;;;;;;5062067;28;20050;-28
2022/09/30 08:24:16;;;;;;;9.32;8.32;;;15.20;99.90;;;;;;5063535;28;20071;-28
2022/09/30 08:26:42;;;;;;;9.68;8.77;;;15.50;99.90;;;;;;5055544;28;20401;-28
2022/09/30 08:29:10;;;;;;;9.23;7.95;;;15.70;99.90;;;;;;5072340;28;20508;-28
2022/09/30 08:31:36;;;;;;;9.13;8.25;;;15.90;99.90;;;;;;5067595;28;20040;-28
2022/09/30 08:34:02;;;;;;;9.05;8.25;;;16.30;99.90;;;;;;5072399;28;20046;-28
2022/09/30 08:36:29;;;;;;;7.97;7.28;;;16.50;99.90;;;;;;5057531;28;20072;-28
2022/09/30 08:38:55;;;;;;;8.98;7.45;;;16.80;99.90;;;;;;5070390;28;20044;-28
2022/09/30 08:41:45;;;;;;;7.68;7.07;;;16.90;99.90;;;;;;5069002;28;20037;-28
2022/09/30 08:44:39;;;;;;;7.90;7.20;;;17.10;99.90;;;;;;5074098;28;20509;-28
2022/09/30 08:47:05;;;;;;;9.40;7.47;;;17.30;99.90;;;;;;5074121;28;20028;-28
2022/09/30 08:49:48;;;;;;;9.18;7.72;;;17.40;99.90;;;;;;5070812;28;20050;-28
2022/09/30 08:52:19;;;;;;;;;;;17.40;99.90;;;;;;5091559;28;20033;-29
2022/09/30 08:54:52;;;;;;;7.07;6.38;;;17.60;99.90;;;;;;5072962;28;20016;-29
2022/09/30 08:57:19;;;;;;;7.63;6.93;;;17.70;99.90;;;;;;5056124;28;20047;-29
2022/09/30 08:59:53;;;;;;;7.07;6.47;;;17.80;99.90;;;;;;5093871;28;20427;-29
2022/09/30 09:02:26;;;;;;;6.68;6.18;;;18.00;99.90;;;;;;5049796;28;20040;-27
2022/09/30 09:04:56;;;;;;;6.20;5.70;;;18.20;99.90;;;;;;5064220;28;20090;-26
2022/09/30 09:07:44;;;;;;;6.07;5.50;;;18.50;99.90;;;;;;5068528;28;20695;-27
2022/09/30 09:10:30;;;;;;;6.32;5.82;;;18.50;99.90;;;;;;5091025;28;20040;-27
2022/09/30 09:13:13;;;;;;;6.30;5.70;;;18.60;99.90;;;;;;5072957;28;20036;-27
2022/09/30 09:15:47;;;;;;;6.13;5.53;;;18.90;99.90;;;;;;5072795;28;20039;-27
2022/09/30 09:18:41;;;;;;;6.85;6.22;;;19.10;99.90;;;;;;5065603;28;20517;-29
2022/09/30 09:21:34;;;;;;;6.22;5.72;;;19.30;99.90;;;;;;5058647;28;20485;-27
2022/09/30 09:24:02;;;;;;;6.68;5.35;;;19.30;99.90;;;;;;5071134;28;20109;-28
2022/09/30 09:26:35;;;;;;;7.35;6.47;;;19.60;99.90;;;;;;5076147;28;20460;-28
2022/09/30 09:29:31;;;;;;;6.32;5.72;;;19.80;99.90;;;;;;5074815;28;20028;-28
2022/09/30 09:31:58;;;;;;;6.90;6.35;;;19.90;99.90;;;;;;5068542;28;20032;-28
2022/09/30 09:34:25;;;;;;;7.22;6.60;;;19.90;99.90;;;;;;5063909;28;20442;-28
2022/09/30 09:37:06;;;;;;;6.40;5.80;;;20.00;99.90;;;;;;5076698;28;20044;-28
2022/09/30 09:39:50;;;;;;;8.80;5.45;;;20.20;95.50;;;;;;5071660;28;20044;-28
2022/09/30 09:42:47;;;;;;;5.90;5.40;;;20.00;99.90;;;;;;5081975;28;20426;-28
2022/09/30 09:45:50;;;;;;;9.32;5.75;;;20.20;99.90;;;;;;5063456;28;20047;-28
2022/09/30 09:48:16;;;;;;;6.70;6.07;;;20.50;96.50;;;;;;5048049;28;20040;-28
2022/09/30 09:51:02;;;;;;;6.47;5.97;;;20.50;99.90;;;;;;5068979;28;20089;-28
2022/09/30 09:53:46;;;;;;;6.35;5.75;;;20.40;99.50;;;;;;5053822;28;20127;-27
2022/09/30 09:56:27;;;;;;;7.30;5.68;;;20.60;99.90;;;;;;5074376;28;20051;-27
2022/09/30 09:59:14;;;;;;;6.55;6.05;;;21.00;99.90;;;;;;5060371;28;20035;-28
2022/09/30 10:01:46;;;;;;;7.05;6.55;;;21.00;95.20;;;;;;5064299;28;20385;-27
2022/09/30 10:04:26;;;;;;;7.68;7.03;;;21.00;97.70;;;;;;5064495;28;20044;-28
2022/09/30 10:06:58;;;;;;;7.47;6.78;;;21.00;98.20;;;;;;5067011;28;20075;-28
2022/09/30 10:09:27;;;;;;;8.80;7.90;;;21.10;98.20;;;;;;5074021;28;20044;-28
2022/09/30 10:12:05;;;;;;;9.88;8.00;;;21.40;95.80;;;;;;5074383;28;20139;-28
2022/09/30 10:15:02;;;;;;;8.65;8.02;;;21.40;81.30;;;;;;5071553;28;20032;-27
2022/09/30 10:17:31;;;;;;;9.30;8.50;;;21.50;80.90;;;;;;5074879;28;20048;-28
2022/09/30 10:20:25;;;;;;;9.95;9.05;;;21.70;94.00;;;;;;5075510;28;20148;-28
2022/09/30 10:22:58;;;;;;;;;;;22.00;83.90;;;;;;5076137;28;20029;-28
2022/09/30 10:25:24;;;;;;;10.55;9.60;;;22.00;64.10;;;;;;5072174;28;19924;-28
2022/09/30 10:27:57;;;;;;;9.50;8.70;;;22.00;87.60;;;;;;5074977;28;20039;-27
2022/09/30 10:30:45;;;;;;;10.65;9.75;;;22.00;78.20;;;;;;5071672;28;20096;-34
2022/09/30 10:33:22;;;;;;;9.93;9.02;;;22.00;68.30;;;;;;5072050;28;20040;-28
2022/09/30 10:35:55;;;;;;;10.40;9.48;;;22.10;71.30;;;;;;5066471;28;20401;-28
2022/09/30 10:38:23;;;;;;;9.23;8.30;;;22.10;69.50;;;;;;5070346;28;20516;-27
2022/09/30 10:40:50;;;;;;;8.10;7.40;;;21.90;70.00;;;;;;5066952;28;20063;-27
2022/09/30 10:43:31;;;;;;;7.65;6.95;;;21.80;71.60;;;;;;5064072;28;20515;-27
2022/09/30 10:46:02;;;;;;;8.18;7.53;;;21.80;63.40;;;;;;5068662;28;20387;-27
2022/09/30 10:48:31;;;;;;;7.60;7.00;;;22.00;66.90;;;;;;5072212;28;20032;-27
2022/09/30 10:50:57;;;;;;;7.63;7.03;;;22.00;68.30;;;;;;5071764;28;20123;-27
2022/09/30 10:53:28;;;;;;;7.82;6.88;;;22.40;67.70;;;;;;5071697;28;20071;-28
2022/09/30 10:55:56;;;;;;;6.78;6.15;;;22.50;65.30;;;;;;5040566;28;20052;-28
2022/09/30 10:58:21;;;;;;;6.13;5.60;;;21.90;64.70;;;;;;5066116;28;20079;-27
2022/09/30 11:01:24;;;;;;;5.18;4.53;;;21.30;66.00;;;;;;5060601;28;20064;-27
2022/09/30 11:04:12;;;;;;;4.75;4.28;;;21.20;67.10;;;;;;5076806;28;20044;-28
2022/09/30 11:06:39;;;;;;;5.20;4.75;;;21.60;64.40;;;;;;5061916;28;20066;-28
2022/09/30 11:09:09;;;;;;;5.75;5.25;;;21.40;65.00;;;;;;5072427;28;20044;-28
2022/09/30 11:11:53;;;;;;;5.72;5.10;;;21.60;68.00;;;;;;5070755;28;20036;-28
2022/09/30 11:14:28;;;;;;;8.93;5.70;;;21.30;63.00;;;;;;5056070;28;20122;-28
2022/09/30 11:17:12;;;;;;;7.40;6.70;;;21.60;63.30;;;;;;5057833;28;20509;-29
2022/09/30 11:19:47;;;;;;;8.00;7.30;;;21.30;63.50;;;;;;5064860;28;20040;-28
2022/09/30 11:22:36;;;;;;;8.05;7.35;;;21.50;65.90;;;;;;5067505;28;20505;-28
2022/09/30 11:25:02;;;;;;;9.20;7.38;;;21.30;64.30;;;;;;5068031;28;20036;-28
2022/09/30 11:27:37;;;;;;;8.60;7.68;;;21.00;66.50;;;;;;5067081;28;20048;-28
2022/09/30 11:30:22;;;;;;;8.93;7.88;;;20.70;67.90;;;;;;5064601;28;20036;-28
2022/09/30 11:33:25;;;;;;;9.82;8.82;;;20.50;76.40;;;;;;5061662;28;20093;-28
2022/09/30 11:36:11;;;;;;;9.73;8.73;;;20.70;82.10;;;;;;5089114;28;20071;-28
2022/09/30 11:39:03;;;;;;;8.73;7.93;;;21.10;67.40;;;;;;5033912;28;20052;-28
2022/09/30 11:41:39;;;;;;;8.45;7.75;;;21.60;61.90;;;;;;5053309;28;20052;-28
2022/09/30 11:44:14;;;;;;;9.38;8.48;;;22.30;58.50;;;;;;5067475;28;20027;-28
2022/09/30 11:47:04;;;;;;;8.98;8.15;;;22.90;57.50;;;;;;5066370;28;20070;-28
2022/09/30 11:49:30;;;;;;;8.07;7.30;;;23.40;56.10;;;;;;5077950;28;20421;-28
2022/09/30 11:52:05;;;;;;;7.22;6.65;;;23.70;54.30;;;;;;5078336;28;20040;-28
2022/09/30 11:54:33;;;;;;;7.03;6.53;;;23.90;51.80;;;;;;5066682;28;20486;-29
2022/09/30 11:57:20;;;;;;;8.07;7.38;;;23.70;53.20;;;;;;5072163;28;20088;-29
2022/09/30 11:59:51;;;;;;;8.88;8.07;;;23.60;54.00;;;;;;5090740;28;20037;-29
2022/09/30 12:02:39;;;;;;;9.52;8.55;;;23.80;53.90;;;;;;5076009;28;20033;-28
2022/09/30 12:05:24;;;;;;;8.85;8.15;;;23.60;52.50;;;;;;5071459;28;20342;-28
2022/09/30 12:08:01;;;;;;;9.10;8.30;;;23.40;53.10;;;;;;5062784;28;20090;-28
2022/09/30 12:10:38;;;;;;;8.82;7.93;;;23.00;51.40;;;;;;5076872;28;20036;-28
2022/09/30 12:13:14;;;;;;;8.48;7.72;;;22.70;53.20;;;;;;5076311;28;20039;-28
2022/09/30 12:15:42;;;;;;;7.35;6.75;;;22.80;54.50;;;;;;5081603;28;20031;-28
2022/09/30 12:18:21;;;;;;;7.10;6.50;;;23.00;55.60;;;;;;5087804;28;20060;-28
2022/09/30 12:21:09;;;;;;;6.65;6.05;;;23.30;52.80;;;;;;5067715;28;20044;-28
2022/09/30 12:23:42;;;;;;;7.50;6.88;;;24.10;51.10;;;;;;5072025;28;20071;-28
2022/09/30 12:26:16;;;;;;;6.68;6.10;;;24.60;50.40;;;;;;5071968;28;20063;-28
2022/09/30 12:32:20;;;;;;;8.00;7.40;;;25.40;47.70;;;;;;5082569;28;20119;-28
2022/09/30 12:35:08;;;;;;;8.63;7.85;;;24.50;45.30;;;;;;5072173;28;20036;-28
2022/09/30 12:37:56;;;;;;;7.90;7.10;;;24.40;48.40;;;;;;5074314;28;20426;-28
2022/09/30 12:40:21;;;;;;;7.65;6.88;;;24.20;49.20;;;;;;5054273;28;20044;-27
2022/09/30 12:43:23;;;;;;;7.88;7.15;;;24.40;48.70;;;;;;5071788;28;20047;-27
2022/09/30 12:46:17;;;;;;;7.50;6.80;;;25.00;46.30;;;;;;5070225;28;20083;-27
2022/09/30 12:48:52;;;;;;;8.13;7.43;;;24.70;46.20;;;;;;5059496;28;20516;-27
2022/09/30 12:51:42;;;;;;;9.00;8.20;;;23.60;47.20;;;;;;5073406;28;20477;-28
2022/09/30 12:54:23;;;;;;;8.45;7.65;;;22.60;49.10;;;;;;5064990;28;20508;-27
2022/09/30 12:56:55;;;;;;;9.95;8.52;;;21.90;51.40;;;;;;5066327;28;20063;-27
2022/09/30 12:59:30;;;;;;;10.38;9.57;;;22.40;52.60;;;;;;5072447;28;20179;-27
2022/09/30 13:01:58;;;;;;;10.55;9.75;;;23.30;52.50;;;;;;5076296;28;20043;-28
2022/09/30 13:04:32;;;;;;;10.30;9.40;;;23.30;50.80;;;;;;5074488;28;20121;-27
2022/09/30 13:06:57;;;;;;;10.15;9.07;;;22.90;50.80;;;;;;5076285;28;20064;-27
2022/09/30 13:09:33;;;;;;;9.70;8.82;;;22.80;51.80;;;;;;5070473;28;20071;-28
2022/09/30 13:11:59;;;;;;;11.05;10.02;;;22.80;51.70;;;;;;5067013;28;20044;-28
2022/09/30 13:14:42;;;;;;;9.23;8.45;;;23.20;52.70;;;;;;5067720;28;20435;-28
2022/09/30 13:17:07;;;;;;;9.05;8.35;;;23.60;50.30;;;;;;5063441;28;20493;-28
2022/09/30 13:19:41;;;;;;;10.68;9.80;;;23.40;51.00;;;;;;5074587;28;20101;-28